sensor_id;sensor_type;location;lat;lon;timestamp;pressure;altitude;pressure_sealevel;temperature
65823;BMP180;52585;47.566;19.056;2022-07-23T00:00:18;100325.00;;;27.00
65823;BMP180;52585;47.566;19.056;2022-07-23T00:02:45;100329.00;;;27.00
65823;BMP180;52585;47.566;19.056;2022-07-23T00:05:11;100327.80;;;26.90
65823;BMP180;52585;47.566;19.056;2022-07-23T00:07:37;100324.20;;;26.90
65823;BMP180;52585;47.566;19.056;2022-07-23T00:10:04;100318.20;;;26.90
65823;BMP180;52585;47.566;19.056;2022-07-23T00:12:30;100319.60;;;26.80
65823;BMP180;52585;47.566;19.056;2022-07-23T00:14:56;100321.00;;;26.80
65823;BMP180;52585;47.566;19.056;2022-07-23T00:17:21;100322.40;;;26.80
65823;BMP180;52585;47.566;19.056;2022-07-23T00:19:47;100323.60;;;26.76
65823;BMP180;52585;47.566;19.056;2022-07-23T00:22:12;100324.20;;;26.70
65823;BMP180;52585;47.566;19.056;2022-07-23T00:24:38;100325.60;;;26.70
65823;BMP180;52585;47.566;19.056;2022-07-23T00:27:03;100323.80;;;26.70
65823;BMP180;52585;47.566;19.056;2022-07-23T00:29:29;100322.60;;;26.60
65823;BMP180;52585;47.566;19.056;2022-07-23T00:31:54;100322.00;;;26.60
65823;BMP180;52585;47.566;19.056;2022-07-23T00:34:20;100321.40;;;26.60
65823;BMP180;52585;47.566;19.056;2022-07-23T00:36:46;100329.20;;;26.56
65823;BMP180;52585;47.566;19.056;2022-07-23T00:39:11;100331.60;;;26.50
65823;BMP180;52585;47.566;19.056;2022-07-23T00:41:37;100330.60;;;26.50
65823;BMP180;52585;47.566;19.056;2022-07-23T00:44:26;100339.00;;;26.50
65823;BMP180;52585;47.566;19.056;2022-07-23T00:46:58;100338.00;;;26.50
65823;BMP180;52585;47.566;19.056;2022-07-23T00:49:27;100340.20;;;26.40
65823;BMP180;52585;47.566;19.056;2022-07-23T00:51:55;100336.80;;;26.40
65823;BMP180;52585;47.566;19.056;2022-07-23T00:54:24;100338.40;;;26.40
65823;BMP180;52585;47.566;19.056;2022-07-23T00:56:50;100336.80;;;26.32
65823;BMP180;52585;47.566;19.056;2022-07-23T00:59:16;100332.20;;;26.30
65823;BMP180;52585;47.566;19.056;2022-07-23T01:01:42;100333.40;;;26.30
65823;BMP180;52585;47.566;19.056;2022-07-23T01:04:10;100334.60;;;26.30
65823;BMP180;52585;47.566;19.056;2022-07-23T01:06:38;100332.80;;;26.26
65823;BMP180;52585;47.566;19.056;2022-07-23T01:09:07;100330.20;;;26.20
65823;BMP180;52585;47.566;19.056;2022-07-23T01:11:35;100333.00;;;26.20
65823;BMP180;52585;47.566;19.056;2022-07-23T01:16:34;100340.80;;;26.18
65823;BMP180;52585;47.566;19.056;2022-07-23T01:18:59;100337.40;;;26.10
65823;BMP180;52585;47.566;19.056;2022-07-23T01:21:25;100336.00;;;26.10
65823;BMP180;52585;47.566;19.056;2022-07-23T01:23:51;100333.60;;;26.10
65823;BMP180;52585;47.566;19.056;2022-07-23T01:26:16;100325.20;;;26.06
65823;BMP180;52585;47.566;19.056;2022-07-23T01:28:43;100327.00;;;26.00
65823;BMP180;52585;47.566;19.056;2022-07-23T01:31:09;100329.00;;;26.00
65823;BMP180;52585;47.566;19.056;2022-07-23T01:33:34;100329.80;;;26.00
65823;BMP180;52585;47.566;19.056;2022-07-23T01:36:00;100332.60;;;26.00
65823;BMP180;52585;47.566;19.056;2022-07-23T01:38:25;100333.20;;;26.00
65823;BMP180;52585;47.566;19.056;2022-07-23T01:40:51;100323.60;;;25.90
65823;BMP180;52585;47.566;19.056;2022-07-23T01:43:17;100325.80;;;25.90
65823;BMP180;52585;47.566;19.056;2022-07-23T01:45:42;100323.20;;;25.90
65823;BMP180;52585;47.566;19.056;2022-07-23T01:48:10;100331.80;;;25.90
65823;BMP180;52585;47.566;19.056;2022-07-23T01:50:35;100333.00;;;25.84
65823;BMP180;52585;47.566;19.056;2022-07-23T01:53:01;100337.40;;;25.80
65823;BMP180;52585;47.566;19.056;2022-07-23T01:55:26;100337.80;;;25.80
65823;BMP180;52585;47.566;19.056;2022-07-23T01:57:52;100331.60;;;25.80
65823;BMP180;52585;47.566;19.056;2022-07-23T02:00:18;100323.20;;;25.80
65823;BMP180;52585;47.566;19.056;2022-07-23T02:02:43;100325.00;;;25.72
65823;BMP180;52585;47.566;19.056;2022-07-23T02:05:09;100325.20;;;25.70
65823;BMP180;52585;47.566;19.056;2022-07-23T02:07:35;100325.20;;;25.70
65823;BMP180;52585;47.566;19.056;2022-07-23T02:10:00;100320.20;;;25.70
65823;BMP180;52585;47.566;19.056;2022-07-23T02:12:26;100315.20;;;25.68
65823;BMP180;52585;47.566;19.056;2022-07-23T02:14:51;100316.40;;;25.60
65823;BMP180;52585;47.566;19.056;2022-07-23T02:17:17;100316.80;;;25.60
65823;BMP180;52585;47.566;19.056;2022-07-23T02:19:43;100321.20;;;25.60
65823;BMP180;52585;47.566;19.056;2022-07-23T02:22:08;100322.80;;;25.50
65823;BMP180;52585;47.566;19.056;2022-07-23T02:24:34;100324.40;;;25.50
65823;BMP180;52585;47.566;19.056;2022-07-23T02:26:59;100319.20;;;25.50
65823;BMP180;52585;47.566;19.056;2022-07-23T02:29:25;100318.20;;;25.50
65823;BMP180;52585;47.566;19.056;2022-07-23T02:31:50;100315.00;;;25.40
65823;BMP180;52585;47.566;19.056;2022-07-23T02:34:16;100313.20;;;25.40
65823;BMP180;52585;47.566;19.056;2022-07-23T02:36:42;100315.40;;;25.40
65823;BMP180;52585;47.566;19.056;2022-07-23T02:39:07;100312.40;;;25.40
65823;BMP180;52585;47.566;19.056;2022-07-23T02:41:33;100316.00;;;25.32
65823;BMP180;52585;47.566;19.056;2022-07-23T02:43:58;100320.60;;;25.30
65823;BMP180;52585;47.566;19.056;2022-07-23T02:46:24;100330.80;;;25.30
65823;BMP180;52585;47.566;19.056;2022-07-23T02:48:49;100332.60;;;25.30
65823;BMP180;52585;47.566;19.056;2022-07-23T02:51:15;100326.20;;;25.20
65823;BMP180;52585;47.566;19.056;2022-07-23T02:53:41;100320.40;;;25.20
65823;BMP180;52585;47.566;19.056;2022-07-23T02:56:07;100321.60;;;25.20
65823;BMP180;52585;47.566;19.056;2022-07-23T02:58:32;100318.20;;;25.20
65823;BMP180;52585;47.566;19.056;2022-07-23T03:00:58;100319.60;;;25.10
65823;BMP180;52585;47.566;19.056;2022-07-23T03:03:23;100314.60;;;25.10
65823;BMP180;52585;47.566;19.056;2022-07-23T03:05:49;100313.00;;;25.10
65823;BMP180;52585;47.566;19.056;2022-07-23T03:08:14;100313.00;;;25.10
65823;BMP180;52585;47.566;19.056;2022-07-23T03:10:41;100320.00;;;25.08
65823;BMP180;52585;47.566;19.056;2022-07-23T03:13:07;100317.20;;;25.00
65823;BMP180;52585;47.566;19.056;2022-07-23T03:15:32;100327.00;;;25.00
65823;BMP180;52585;47.566;19.056;2022-07-23T03:17:58;100322.40;;;25.00
65823;BMP180;52585;47.566;19.056;2022-07-23T03:20:24;100316.60;;;25.00
65823;BMP180;52585;47.566;19.056;2022-07-23T03:22:49;100321.40;;;25.00
65823;BMP180;52585;47.566;19.056;2022-07-23T03:25:15;100327.60;;;25.00
65823;BMP180;52585;47.566;19.056;2022-07-23T03:27:40;100327.40;;;24.98
65823;BMP180;52585;47.566;19.056;2022-07-23T03:30:07;100332.80;;;24.92
65823;BMP180;52585;47.566;19.056;2022-07-23T03:32:33;100323.60;;;24.90
65823;BMP180;52585;47.566;19.056;2022-07-23T03:34:59;100327.60;;;24.90
65823;BMP180;52585;47.566;19.056;2022-07-23T03:37:25;100326.40;;;24.90
65823;BMP180;52585;47.566;19.056;2022-07-23T03:39:51;100320.20;;;24.90
65823;BMP180;52585;47.566;19.056;2022-07-23T03:42:16;100322.60;;;24.90
65823;BMP180;52585;47.566;19.056;2022-07-23T03:44:42;100321.60;;;24.90
65823;BMP180;52585;47.566;19.056;2022-07-23T03:47:07;100319.80;;;24.84
65823;BMP180;52585;47.566;19.056;2022-07-23T03:49:33;100317.40;;;24.82
65823;BMP180;52585;47.566;19.056;2022-07-23T03:51:59;100321.20;;;24.80
65823;BMP180;52585;47.566;19.056;2022-07-23T03:54:25;100321.60;;;24.80
65823;BMP180;52585;47.566;19.056;2022-07-23T03:56:51;100326.20;;;24.80
65823;BMP180;52585;47.566;19.056;2022-07-23T03:59:16;100329.40;;;24.80
65823;BMP180;52585;47.566;19.056;2022-07-23T04:01:42;100323.00;;;24.80
65823;BMP180;52585;47.566;19.056;2022-07-23T04:04:08;100321.60;;;24.80
65823;BMP180;52585;47.566;19.056;2022-07-23T04:06:35;100321.40;;;24.80
65823;BMP180;52585;47.566;19.056;2022-07-23T04:09:01;100325.20;;;24.80
65823;BMP180;52585;47.566;19.056;2022-07-23T04:11:27;100326.40;;;24.80
65823;BMP180;52585;47.566;19.056;2022-07-23T04:13:52;100328.60;;;24.82
65823;BMP180;52585;47.566;19.056;2022-07-23T04:16:18;100333.80;;;24.86
65823;BMP180;52585;47.566;19.056;2022-07-23T04:18:43;100334.40;;;24.90
65823;BMP180;52585;47.566;19.056;2022-07-23T04:21:09;100335.00;;;24.90
65823;BMP180;52585;47.566;19.056;2022-07-23T04:23:35;100338.40;;;24.90
65823;BMP180;52585;47.566;19.056;2022-07-23T04:26:01;100339.40;;;24.90
65823;BMP180;52585;47.566;19.056;2022-07-23T04:28:29;100336.20;;;24.90
65823;BMP180;52585;47.566;19.056;2022-07-23T04:30:59;100337.80;;;24.92
65823;BMP180;52585;47.566;19.056;2022-07-23T04:33:27;100333.20;;;24.96
65823;BMP180;52585;47.566;19.056;2022-07-23T04:35:52;100333.60;;;25.00
65823;BMP180;52585;47.566;19.056;2022-07-23T04:38:18;100331.60;;;25.00
65823;BMP180;52585;47.566;19.056;2022-07-23T04:40:44;100339.80;;;25.00
65823;BMP180;52585;47.566;19.056;2022-07-23T04:43:09;100341.40;;;25.00
65823;BMP180;52585;47.566;19.056;2022-07-23T04:45:35;100340.00;;;25.00
65823;BMP180;52585;47.566;19.056;2022-07-23T04:48:01;100343.20;;;25.02
65823;BMP180;52585;47.566;19.056;2022-07-23T04:50:50;100344.60;;;25.10
65823;BMP180;52585;47.566;19.056;2022-07-23T04:53:18;100351.20;;;25.10
65823;BMP180;52585;47.566;19.056;2022-07-23T04:55:45;100353.60;;;25.10
65823;BMP180;52585;47.566;19.056;2022-07-23T04:58:11;100349.20;;;25.10
65823;BMP180;52585;47.566;19.056;2022-07-23T05:00:36;100352.60;;;25.12
65823;BMP180;52585;47.566;19.056;2022-07-23T05:03:02;100350.40;;;25.20
65823;BMP180;52585;47.566;19.056;2022-07-23T05:05:28;100351.80;;;25.20
65823;BMP180;52585;47.566;19.056;2022-07-23T05:07:53;100349.00;;;25.20
65823;BMP180;52585;47.566;19.056;2022-07-23T05:10:19;100343.60;;;25.22
65823;BMP180;52585;47.566;19.056;2022-07-23T05:12:44;100342.60;;;25.30
65823;BMP180;52585;47.566;19.056;2022-07-23T05:15:10;100342.20;;;25.30
65823;BMP180;52585;47.566;19.056;2022-07-23T05:17:36;100339.40;;;25.30
65823;BMP180;52585;47.566;19.056;2022-07-23T05:20:01;100337.60;;;25.30
65823;BMP180;52585;47.566;19.056;2022-07-23T05:22:29;100338.20;;;25.36
65823;BMP180;52585;47.566;19.056;2022-07-23T05:24:54;100338.60;;;25.40
65823;BMP180;52585;47.566;19.056;2022-07-23T05:27:20;100341.00;;;25.40
65823;BMP180;52585;47.566;19.056;2022-07-23T05:29:45;100338.00;;;25.40
65823;BMP180;52585;47.566;19.056;2022-07-23T05:32:11;100340.20;;;25.48
65823;BMP180;52585;47.566;19.056;2022-07-23T05:34:36;100347.80;;;25.50
65823;BMP180;52585;47.566;19.056;2022-07-23T05:37:11;100346.00;;;25.50
65823;BMP180;52585;47.566;19.056;2022-07-23T05:39:37;100344.40;;;25.50
65823;BMP180;52585;47.566;19.056;2022-07-23T05:42:02;100339.00;;;25.54
65823;BMP180;52585;47.566;19.056;2022-07-23T05:44:28;100340.80;;;25.60
65823;BMP180;52585;47.566;19.056;2022-07-23T05:46:54;100339.80;;;25.60
65823;BMP180;52585;47.566;19.056;2022-07-23T05:49:19;100336.80;;;25.60
65823;BMP180;52585;47.566;19.056;2022-07-23T05:51:45;100338.00;;;25.70
65823;BMP180;52585;47.566;19.056;2022-07-23T05:54:10;100336.20;;;25.70
65823;BMP180;52585;47.566;19.056;2022-07-23T05:56:36;100336.80;;;25.70
65823;BMP180;52585;47.566;19.056;2022-07-23T05:59:02;100337.20;;;25.72
65823;BMP180;52585;47.566;19.056;2022-07-23T06:01:28;100338.20;;;25.80
65823;BMP180;52585;47.566;19.056;2022-07-23T06:03:53;100336.20;;;25.80
65823;BMP180;52585;47.566;19.056;2022-07-23T06:06:19;100337.40;;;25.82
65823;BMP180;52585;47.566;19.056;2022-07-23T06:08:44;100335.80;;;25.90
65823;BMP180;52585;47.566;19.056;2022-07-23T06:11:11;100330.20;;;25.90
65823;BMP180;52585;47.566;19.056;2022-07-23T06:13:36;100324.00;;;25.90
65823;BMP180;52585;47.566;19.056;2022-07-23T06:16:02;100323.00;;;26.00
65823;BMP180;52585;47.566;19.056;2022-07-23T06:18:28;100318.80;;;26.00
65823;BMP180;52585;47.566;19.056;2022-07-23T06:20:53;100314.80;;;26.00
65823;BMP180;52585;47.566;19.056;2022-07-23T06:23:20;100312.60;;;26.10
65823;BMP180;52585;47.566;19.056;2022-07-23T06:25:46;100312.00;;;26.10
65823;BMP180;52585;47.566;19.056;2022-07-23T06:28:11;100312.40;;;26.18
65823;BMP180;52585;47.566;19.056;2022-07-23T06:30:37;100316.00;;;26.20
65823;BMP180;52585;47.566;19.056;2022-07-23T06:33:06;100317.80;;;26.20
65823;BMP180;52585;47.566;19.056;2022-07-23T06:35:31;100318.80;;;26.30
65823;BMP180;52585;47.566;19.056;2022-07-23T06:37:59;100317.00;;;26.30
65823;BMP180;52585;47.566;19.056;2022-07-23T06:40:24;100317.00;;;26.30
65823;BMP180;52585;47.566;19.056;2022-07-23T06:42:51;100318.00;;;26.40
65823;BMP180;52585;47.566;19.056;2022-07-23T06:45:17;100317.20;;;26.40
65823;BMP180;52585;47.566;19.056;2022-07-23T06:47:43;100317.40;;;26.50
65823;BMP180;52585;47.566;19.056;2022-07-23T06:50:10;100315.80;;;26.50
65823;BMP180;52585;47.566;19.056;2022-07-23T06:52:36;100314.60;;;26.52
65823;BMP180;52585;47.566;19.056;2022-07-23T06:55:02;100313.20;;;26.60
65823;BMP180;52585;47.566;19.056;2022-07-23T06:57:27;100312.60;;;26.60
65823;BMP180;52585;47.566;19.056;2022-07-23T06:59:53;100312.80;;;26.70
65823;BMP180;52585;47.566;19.056;2022-07-23T07:02:19;100315.80;;;26.70
65823;BMP180;52585;47.566;19.056;2022-07-23T07:04:45;100308.60;;;26.80
65823;BMP180;52585;47.566;19.056;2022-07-23T07:07:11;100306.20;;;26.80
65823;BMP180;52585;47.566;19.056;2022-07-23T07:09:37;100306.60;;;26.90
65823;BMP180;52585;47.566;19.056;2022-07-23T07:12:04;100308.00;;;26.90
65823;BMP180;52585;47.566;19.056;2022-07-23T07:14:29;100306.00;;;26.92
65823;BMP180;52585;47.566;19.056;2022-07-23T07:16:55;100301.20;;;27.00
65823;BMP180;52585;47.566;19.056;2022-07-23T07:19:21;100297.40;;;27.00
65823;BMP180;52585;47.566;19.056;2022-07-23T07:21:47;100294.00;;;27.02
65823;BMP180;52585;47.566;19.056;2022-07-23T07:24:13;100293.80;;;27.10
65823;BMP180;52585;47.566;19.056;2022-07-23T07:26:38;100288.20;;;27.10
65823;BMP180;52585;47.566;19.056;2022-07-23T07:29:05;100287.00;;;27.20
65823;BMP180;52585;47.566;19.056;2022-07-23T07:31:32;100288.20;;;27.20
65823;BMP180;52585;47.566;19.056;2022-07-23T07:33:59;100285.40;;;27.24
65823;BMP180;52585;47.566;19.056;2022-07-23T07:36:24;100285.40;;;27.30
65823;BMP180;52585;47.566;19.056;2022-07-23T07:38:50;100284.80;;;27.30
65823;BMP180;52585;47.566;19.056;2022-07-23T07:41:16;100287.40;;;27.36
65823;BMP180;52585;47.566;19.056;2022-07-23T07:43:41;100288.80;;;27.40
65823;BMP180;52585;47.566;19.056;2022-07-23T07:46:07;100294.40;;;27.50
65823;BMP180;52585;47.566;19.056;2022-07-23T07:48:37;100288.40;;;27.50
65823;BMP180;52585;47.566;19.056;2022-07-23T07:51:06;100292.80;;;27.56
65823;BMP180;52585;47.566;19.056;2022-07-23T07:53:32;100290.00;;;27.60
65823;BMP180;52585;47.566;19.056;2022-07-23T07:56:04;100286.00;;;27.68
65823;BMP180;52585;47.566;19.056;2022-07-23T07:58:30;100284.00;;;27.78
65823;BMP180;52585;47.566;19.056;2022-07-23T08:00:55;100281.20;;;27.84
65823;BMP180;52585;47.566;19.056;2022-07-23T08:03:21;100286.60;;;28.00
65823;BMP180;52585;47.566;19.056;2022-07-23T08:05:46;100286.20;;;28.10
65823;BMP180;52585;47.566;19.056;2022-07-23T08:08:12;100285.00;;;28.20
65823;BMP180;52585;47.566;19.056;2022-07-23T08:10:40;100289.40;;;28.34
65823;BMP180;52585;47.566;19.056;2022-07-23T08:13:06;100287.40;;;28.44
65823;BMP180;52585;47.566;19.056;2022-07-23T08:15:31;100287.00;;;28.56
65823;BMP180;52585;47.566;19.056;2022-07-23T08:17:57;100281.60;;;28.64
65823;BMP180;52585;47.566;19.056;2022-07-23T08:20:24;100284.20;;;28.72
65823;BMP180;52585;47.566;19.056;2022-07-23T08:22:57;100284.60;;;28.80
65823;BMP180;52585;47.566;19.056;2022-07-23T08:27:51;100281.80;;;29.00
65823;BMP180;52585;47.566;19.056;2022-07-23T08:30:18;100279.60;;;29.10
65823;BMP180;52585;47.566;19.056;2022-07-23T08:33:10;100278.40;;;29.20
65823;BMP180;52585;47.566;19.056;2022-07-23T08:35:42;100277.00;;;29.30
65823;BMP180;52585;47.566;19.056;2022-07-23T08:38:10;100278.20;;;29.40
65823;BMP180;52585;47.566;19.056;2022-07-23T08:40:40;100279.00;;;29.50
65823;BMP180;52585;47.566;19.056;2022-07-23T08:43:13;100282.20;;;29.60
65823;BMP180;52585;47.566;19.056;2022-07-23T08:45:45;100279.40;;;29.70
65823;BMP180;52585;47.566;19.056;2022-07-23T08:48:18;100280.00;;;29.80
65823;BMP180;52585;47.566;19.056;2022-07-23T08:50:53;100280.60;;;29.90
65823;BMP180;52585;47.566;19.056;2022-07-23T08:53:21;100272.00;;;30.00
65823;BMP180;52585;47.566;19.056;2022-07-23T08:55:51;100271.20;;;30.06
65823;BMP180;52585;47.566;19.056;2022-07-23T08:58:17;100267.20;;;30.20
65823;BMP180;52585;47.566;19.056;2022-07-23T09:00:44;100269.40;;;30.28
65823;BMP180;52585;47.566;19.056;2022-07-23T09:03:33;100269.80;;;30.38
65823;BMP180;52585;47.566;19.056;2022-07-23T09:06:00;100264.80;;;30.46
65823;BMP180;52585;47.566;19.056;2022-07-23T09:08:41;100261.60;;;30.50
65823;BMP180;52585;47.566;19.056;2022-07-23T09:11:10;100261.80;;;30.62
65823;BMP180;52585;47.566;19.056;2022-07-23T09:13:50;100257.20;;;30.70
65823;BMP180;52585;47.566;19.056;2022-07-23T09:16:30;100256.40;;;30.80
65823;BMP180;52585;47.566;19.056;2022-07-23T09:19:03;100257.00;;;30.80
65823;BMP180;52585;47.566;19.056;2022-07-23T09:21:38;100255.00;;;30.90
65823;BMP180;52585;47.566;19.056;2022-07-23T09:24:09;100253.80;;;31.00
65823;BMP180;52585;47.566;19.056;2022-07-23T09:26:40;100251.40;;;31.10
65823;BMP180;52585;47.566;19.056;2022-07-23T09:29:24;100245.40;;;31.14
65823;BMP180;52585;47.566;19.056;2022-07-23T09:32:01;100250.20;;;31.20
65823;BMP180;52585;47.566;19.056;2022-07-23T09:34:31;100249.20;;;31.30
65823;BMP180;52585;47.566;19.056;2022-07-23T09:37:19;100243.20;;;31.30
65823;BMP180;52585;47.566;19.056;2022-07-23T09:39:47;100250.00;;;31.40
65823;BMP180;52585;47.566;19.056;2022-07-23T09:42:16;100246.20;;;31.50
65823;BMP180;52585;47.566;19.056;2022-07-23T09:44:46;100247.40;;;31.60
65823;BMP180;52585;47.566;19.056;2022-07-23T09:47:12;100245.00;;;31.60
65823;BMP180;52585;47.566;19.056;2022-07-23T09:49:38;100242.20;;;31.70
65823;BMP180;52585;47.566;19.056;2022-07-23T09:52:05;100241.00;;;31.80
65823;BMP180;52585;47.566;19.056;2022-07-23T09:54:39;100239.80;;;31.82
65823;BMP180;52585;47.566;19.056;2022-07-23T09:57:11;100250.20;;;31.90
65823;BMP180;52585;47.566;19.056;2022-07-23T09:59:44;100237.40;;;32.00
65823;BMP180;52585;47.566;19.056;2022-07-23T10:02:13;100232.40;;;32.00
65823;BMP180;52585;47.566;19.056;2022-07-23T10:04:40;100230.00;;;32.10
65823;BMP180;52585;47.566;19.056;2022-07-23T10:07:08;100229.20;;;32.10
65823;BMP180;52585;47.566;19.056;2022-07-23T10:09:40;100229.40;;;32.20
65823;BMP180;52585;47.566;19.056;2022-07-23T10:12:14;100227.80;;;32.22
65823;BMP180;52585;47.566;19.056;2022-07-23T10:14:47;100230.60;;;32.30
65823;BMP180;52585;47.566;19.056;2022-07-23T10:17:19;100220.60;;;32.40
65823;BMP180;52585;47.566;19.056;2022-07-23T10:19:45;100206.20;;;32.46
65823;BMP180;52585;47.566;19.056;2022-07-23T10:22:27;100216.60;;;32.50
65823;BMP180;52585;47.566;19.056;2022-07-23T10:36:18;100217.60;;;32.70
65823;BMP180;52585;47.566;19.056;2022-07-23T10:38:56;100205.40;;;32.70
65823;BMP180;52585;47.566;19.056;2022-07-23T10:41:39;100209.60;;;32.80
65823;BMP180;52585;47.566;19.056;2022-07-23T10:49:35;100204.20;;;32.78
65823;BMP180;52585;47.566;19.056;2022-07-23T10:52:25;100205.20;;;32.80
65823;BMP180;52585;47.566;19.056;2022-07-23T10:57:49;100192.40;;;32.90
65823;BMP180;52585;47.566;19.056;2022-07-23T11:00:23;100193.80;;;32.94
65823;BMP180;52585;47.566;19.056;2022-07-23T11:02:52;100199.80;;;33.00
65823;BMP180;52585;47.566;19.056;2022-07-23T11:05:24;100197.60;;;33.00
65823;BMP180;52585;47.566;19.056;2022-07-23T11:24:06;100170.60;;;33.40
65823;BMP180;52585;47.566;19.056;2022-07-23T11:34:44;100168.60;;;33.40
65823;BMP180;52585;47.566;19.056;2022-07-23T11:37:40;100163.00;;;33.34
65823;BMP180;52585;47.566;19.056;2022-07-23T11:40:12;100160.40;;;33.38
65823;BMP180;52585;47.566;19.056;2022-07-23T11:43:01;100155.60;;;33.40
65823;BMP180;52585;47.566;19.056;2022-07-23T11:45:58;100157.60;;;33.40
65823;BMP180;52585;47.566;19.056;2022-07-23T11:48:30;100153.40;;;33.30
65823;BMP180;52585;47.566;19.056;2022-07-23T11:50:58;100148.80;;;33.30
65823;BMP180;52585;47.566;19.056;2022-07-23T11:53:33;100146.20;;;33.30
65823;BMP180;52585;47.566;19.056;2022-07-23T11:56:05;100144.60;;;33.30
65823;BMP180;52585;47.566;19.056;2022-07-23T11:58:31;100137.00;;;33.26
65823;BMP180;52585;47.566;19.056;2022-07-23T12:00:57;100138.40;;;33.26
65823;BMP180;52585;47.566;19.056;2022-07-23T12:03:22;100136.40;;;33.30
65823;BMP180;52585;47.566;19.056;2022-07-23T12:05:48;100129.60;;;33.30
65823;BMP180;52585;47.566;19.056;2022-07-23T12:08:14;100124.20;;;33.30
65823;BMP180;52585;47.566;19.056;2022-07-23T12:10:43;100122.80;;;33.30
65823;BMP180;52585;47.566;19.056;2022-07-23T12:13:16;100114.20;;;33.30
65823;BMP180;52585;47.566;19.056;2022-07-23T12:15:49;100111.60;;;33.30
65823;BMP180;52585;47.566;19.056;2022-07-23T12:18:22;100108.60;;;33.40
65823;BMP180;52585;47.566;19.056;2022-07-23T12:20:52;100110.00;;;33.40
65823;BMP180;52585;47.566;19.056;2022-07-23T12:23:20;100112.20;;;33.40
65823;BMP180;52585;47.566;19.056;2022-07-23T12:25:49;100106.80;;;33.34
65823;BMP180;52585;47.566;19.056;2022-07-23T12:28:28;100098.80;;;33.32
65823;BMP180;52585;47.566;19.056;2022-07-23T12:30:57;100092.80;;;33.40
65823;BMP180;52585;47.566;19.056;2022-07-23T12:33:34;100091.80;;;33.34
65823;BMP180;52585;47.566;19.056;2022-07-23T12:36:04;100088.60;;;33.34
65823;BMP180;52585;47.566;19.056;2022-07-23T12:38:43;100087.60;;;33.36
65823;BMP180;52585;47.566;19.056;2022-07-23T12:41:09;100088.80;;;33.30
65823;BMP180;52585;47.566;19.056;2022-07-23T12:43:42;100087.40;;;33.30
65823;BMP180;52585;47.566;19.056;2022-07-23T12:46:13;100086.40;;;33.30
65823;BMP180;52585;47.566;19.056;2022-07-23T12:49:00;100082.20;;;33.30
65823;BMP180;52585;47.566;19.056;2022-07-23T12:51:29;100076.20;;;33.30
65823;BMP180;52585;47.566;19.056;2022-07-23T12:54:05;100070.80;;;33.30
65823;BMP180;52585;47.566;19.056;2022-07-23T12:56:34;100073.80;;;33.30
65823;BMP180;52585;47.566;19.056;2022-07-23T13:01:35;100067.00;;;33.28
65823;BMP180;52585;47.566;19.056;2022-07-23T13:04:10;100063.40;;;33.28
65823;BMP180;52585;47.566;19.056;2022-07-23T13:06:58;100062.20;;;33.30
65823;BMP180;52585;47.566;19.056;2022-07-23T13:09:29;100058.60;;;33.26
65823;BMP180;52585;47.566;19.056;2022-07-23T13:11:57;100060.80;;;33.26
65823;BMP180;52585;47.566;19.056;2022-07-23T13:14:25;100062.80;;;33.26
65823;BMP180;52585;47.566;19.056;2022-07-23T13:16:53;100056.60;;;33.20
65823;BMP180;52585;47.566;19.056;2022-07-23T13:19:19;100052.60;;;33.20
65823;BMP180;52585;47.566;19.056;2022-07-23T13:21:48;100054.80;;;33.20
65823;BMP180;52585;47.566;19.056;2022-07-23T13:24:14;100045.80;;;33.20
65823;BMP180;52585;47.566;19.056;2022-07-23T13:26:41;100041.20;;;33.20
65823;BMP180;52585;47.566;19.056;2022-07-23T13:29:07;100034.00;;;33.20
65823;BMP180;52585;47.566;19.056;2022-07-23T13:31:33;100037.00;;;33.24
65823;BMP180;52585;47.566;19.056;2022-07-23T13:33:59;100033.60;;;33.30
65823;BMP180;52585;47.566;19.056;2022-07-23T13:36:24;100031.40;;;33.30
65823;BMP180;52585;47.566;19.056;2022-07-23T13:38:50;100024.20;;;33.30
65823;BMP180;52585;47.566;19.056;2022-07-23T13:41:18;100019.60;;;33.30
65823;BMP180;52585;47.566;19.056;2022-07-23T13:43:44;100022.80;;;33.30
65823;BMP180;52585;47.566;19.056;2022-07-23T13:46:10;100019.00;;;33.30
65823;BMP180;52585;47.566;19.056;2022-07-23T13:48:35;100017.60;;;33.30
65823;BMP180;52585;47.566;19.056;2022-07-23T13:51:01;100017.60;;;33.30
65823;BMP180;52585;47.566;19.056;2022-07-23T13:53:27;100016.40;;;33.32
65823;BMP180;52585;47.566;19.056;2022-07-23T13:55:53;100012.00;;;33.40
65823;BMP180;52585;47.566;19.056;2022-07-23T13:58:20;100015.00;;;33.40
65823;BMP180;52585;47.566;19.056;2022-07-23T14:00:53;100007.00;;;33.40
65823;BMP180;52585;47.566;19.056;2022-07-23T14:03:22;100006.80;;;33.40
65823;BMP180;52585;47.566;19.056;2022-07-23T14:05:52;100003.80;;;33.50
65823;BMP180;52585;47.566;19.056;2022-07-23T14:08:18;100006.20;;;33.50
65823;BMP180;52585;47.566;19.056;2022-07-23T14:10:44;100011.00;;;33.50
65823;BMP180;52585;47.566;19.056;2022-07-23T14:13:19;100003.60;;;33.60
65823;BMP180;52585;47.566;19.056;2022-07-23T14:15:44;100001.60;;;33.60
65823;BMP180;52585;47.566;19.056;2022-07-23T14:18:10;100005.40;;;33.68
65823;BMP180;52585;47.566;19.056;2022-07-23T14:20:35;99999.60;;;33.64
65823;BMP180;52585;47.566;19.056;2022-07-23T14:23:01;99992.80;;;33.60
65823;BMP180;52585;47.566;19.056;2022-07-23T14:25:27;99989.40;;;33.60
65823;BMP180;52585;47.566;19.056;2022-07-23T14:27:53;99983.60;;;33.60
65823;BMP180;52585;47.566;19.056;2022-07-23T14:30:19;99975.60;;;33.70
65823;BMP180;52585;47.566;19.056;2022-07-23T14:32:45;99969.00;;;33.70
65823;BMP180;52585;47.566;19.056;2022-07-23T14:35:10;99956.60;;;33.70
65823;BMP180;52585;47.566;19.056;2022-07-23T14:37:39;99946.00;;;33.70
65823;BMP180;52585;47.566;19.056;2022-07-23T14:40:06;99943.20;;;33.70